Time;durP1;ratioP1;P1;durP2;ratioP2;P2;SDS_P1;SDS_P2;PMS_P1;PMS_P2;Temp;Humidity;BMP_temperature;BMP_pressure;BME280_temperature;BME280_humidity;BME280_pressure;Samples;Min_cycle;Max_cycle;Signal;HPM_P1;HPM_P2
2023/09/08 00:00:55;;;;;;;7.20;6.43;;;17.20;82.30;;;17.07;73.77;98257.66;5027315;28;20465;-83
2023/09/08 00:03:22;;;;;;;10.53;6.63;;;17.20;82.50;;;16.94;74.10;98264.25;5023985;28;20465;-82
2023/09/08 00:05:50;;;;;;;7.00;6.40;;;17.10;82.60;;;16.92;74.42;98256.34;5032918;28;21021;-82
2023/09/08 00:08:18;;;;;;;8.33;6.40;;;17.10;83.00;;;16.91;74.69;98265.59;5042822;28;20450;-82
2023/09/08 00:10:45;;;;;;;6.53;5.93;;;17.00;83.30;;;16.81;75.25;98265.44;5031170;28;20483;-82
2023/09/08 00:13:12;;;;;;;8.07;6.53;;;16.90;83.50;;;16.81;74.90;98257.25;5032389;28;20461;-83
2023/09/08 00:15:39;;;;;;;6.97;6.20;;;16.90;83.40;;;16.80;74.80;98261.06;5045521;28;20466;-82
2023/09/08 00:18:07;;;;;;;6.97;6.27;;;16.90;83.60;;;16.71;75.66;98256.03;5030290;28;20456;-81
2023/09/08 00:20:34;;;;;;;7.63;6.03;;;16.80;84.00;;;16.66;75.80;98253.22;5031568;28;20953;-82
2023/09/08 00:23:03;;;;;;;6.27;5.67;;;16.80;84.20;;;16.69;75.83;98255.44;5029869;28;21009;-82
2023/09/08 00:25:30;;;;;;;7.00;6.37;;;16.80;84.50;;;16.31;76.26;98218.88;5031544;28;20518;-82
2023/09/08 00:27:57;;;;;;;7.67;6.77;;;16.70;84.70;;;16.57;76.57;98252.00;5032733;28;20461;-82
2023/09/08 00:30:25;;;;;;;6.63;6.03;;;16.60;85.00;;;16.63;75.93;98250.16;5031422;28;20469;-82
2023/09/08 00:32:52;;;;;;;6.97;6.37;;;16.60;85.20;;;16.63;75.78;98248.28;5030353;28;20996;-82
2023/09/08 00:35:19;;;;;;;6.90;6.20;;;16.60;85.10;;;16.75;75.22;98250.91;5031116;28;20516;-83
2023/09/08 00:37:46;;;;;;;6.77;6.17;;;16.70;84.90;;;16.71;75.75;98250.56;5047684;28;20481;-82
2023/09/08 00:40:15;;;;;;;5.87;5.37;;;16.70;85.00;;;16.82;74.73;98251.53;5025126;28;20456;-83
2023/09/08 00:42:42;;;;;;;6.93;5.63;;;16.80;84.80;;;16.84;75.01;98251.31;5020886;28;20542;-84
2023/09/08 00:45:10;;;;;;;6.90;6.30;;;16.80;84.90;;;16.76;74.42;98246.28;5025194;28;20530;-83
2023/09/08 00:47:37;;;;;;;7.70;6.90;;;16.80;84.80;;;16.64;75.24;98244.47;5025870;28;20566;-84
2023/09/08 00:50:07;;;;;;;6.57;5.97;;;16.70;85.10;;;16.62;75.60;98257.53;5027654;28;21023;-83
2023/09/08 00:52:34;;;;;;;7.43;6.47;;;16.70;85.20;;;16.75;75.22;98260.97;5022348;28;21197;-83
2023/09/08 00:55:02;;;;;;;8.03;6.00;;;16.70;85.20;;;16.62;75.68;98251.25;5029695;28;20933;-83
2023/09/08 00:57:30;;;;;;;7.10;6.40;;;16.60;85.30;;;16.63;75.70;98256.47;5023709;28;20531;-83
2023/09/08 00:59:58;;;;;;;6.43;5.93;;;16.60;85.30;;;16.55;76.20;98256.88;5020754;28;21108;-83
2023/09/08 01:02:25;;;;;;;7.17;6.60;;;16.60;85.70;;;16.42;76.74;98256.13;5018714;28;20478;-83
2023/09/08 01:04:52;;;;;;;6.77;5.73;;;16.50;85.80;;;16.51;76.56;98261.19;5029004;28;20462;-83
2023/09/08 01:07:21;;;;;;;8.43;7.03;;;16.40;86.10;;;16.37;76.76;98256.06;5035157;28;20510;-82
2023/09/08 01:09:49;;;;;;;7.43;6.77;;;16.40;85.90;;;16.26;77.50;98256.94;5037021;28;20464;-83
2023/09/08 01:12:17;;;;;;;7.90;7.13;;;16.30;86.20;;;16.09;78.09;98260.47;5030725;28;20510;-83
2023/09/08 01:14:45;;;;;;;6.87;6.27;;;16.20;86.30;;;16.03;78.55;98261.47;5046681;28;20937;-82
2023/09/08 01:17:13;;;;;;;7.37;6.77;;;16.00;86.90;;;16.03;78.94;98268.81;5030026;28;20477;-83
2023/09/08 01:19:40;;;;;;;8.67;6.30;;;16.00;87.30;;;15.92;79.22;98265.91;5030393;28;20552;-83
2023/09/08 01:22:42;;;;;;;7.47;6.73;;;16.00;87.80;;;15.97;79.38;98262.44;5036435;28;20845;-82
2023/09/08 01:25:25;;;;;;;7.53;6.53;;;16.00;88.40;;;15.93;79.41;98277.63;5019080;28;20453;-82
2023/09/08 01:27:54;;;;;;;7.77;6.70;;;15.90;88.30;;;15.84;79.62;98269.00;5023674;28;20482;-82
2023/09/08 01:30:25;;;;;;;9.50;7.00;;;15.80;88.70;;;15.86;80.04;98275.88;5022969;28;20474;-82
2023/09/08 01:32:53;;;;;;;7.03;6.43;;;15.80;88.90;;;15.74;80.71;98258.72;5043124;28;20449;-83
2023/09/08 01:35:20;;;;;;;7.47;6.87;;;15.80;89.30;;;15.75;80.97;98271.28;5026402;28;20454;-82
2023/09/08 01:37:49;;;;;;;7.37;6.67;;;15.70;89.60;;;15.74;81.33;98264.19;5027704;28;20457;-82
2023/09/08 01:40:18;;;;;;;8.20;7.40;;;15.70;90.00;;;15.57;81.42;98237.72;5027462;28;20477;-82
2023/09/08 01:42:47;;;;;;;8.43;7.63;;;15.70;89.90;;;15.71;81.16;98264.69;5012142;28;20469;-82
2023/09/08 01:45:14;;;;;;;8.13;7.43;;;15.70;90.00;;;15.60;81.82;98268.25;5046498;28;20515;-82
2023/09/08 01:47:41;;;;;;;10.13;7.43;;;15.60;90.10;;;15.58;82.07;98260.31;5040868;28;20527;-82
2023/09/08 01:50:09;;;;;;;9.33;7.80;;;15.60;90.20;;;15.47;81.87;98261.19;5041308;28;20531;-82
2023/09/08 01:52:37;;;;;;;13.73;7.70;;;15.60;90.20;;;15.40;82.62;98253.19;5047757;28;20489;-81
2023/09/08 01:55:05;;;;;;;7.93;7.10;;;15.50;90.50;;;15.39;83.20;98249.63;5026049;28;20452;-82
2023/09/08 01:57:32;;;;;;;10.23;7.27;;;15.50;90.90;;;15.39;82.94;98246.91;5021309;28;20575;-82
2023/09/08 02:00:01;;;;;;;7.83;7.13;;;15.50;90.60;;;15.41;83.00;98254.84;5017217;28;20471;-82
2023/09/08 02:02:28;;;;;;;8.10;7.40;;;15.50;90.60;;;15.34;82.82;98256.84;5032897;28;20468;-82
2023/09/08 02:04:55;;;;;;;7.80;7.10;;;15.50;90.50;;;15.30;83.33;98254.63;5018753;28;20462;-83
2023/09/08 02:07:22;;;;;;;8.90;7.67;;;15.40;90.70;;;15.17;83.38;98254.88;5020304;28;22748;-82
2023/09/08 02:09:49;;;;;;;8.17;7.33;;;15.40;90.60;;;15.08;84.41;98250.84;5016054;28;20465;-82
2023/09/08 02:12:17;;;;;;;7.60;6.90;;;15.30;91.00;;;15.06;84.35;98258.44;5017021;28;20959;-83
2023/09/08 02:14:44;;;;;;;8.43;7.63;;;15.20;91.00;;;14.90;85.58;98260.81;5016856;28;20459;-83
2023/09/08 02:17:12;;;;;;;7.90;7.10;;;15.10;91.20;;;14.76;86.51;98262.13;5016497;28;20586;-85
2023/09/08 02:19:39;;;;;;;9.27;7.70;;;14.90;91.80;;;14.71;86.14;98262.81;5033159;28;20457;-82
2023/09/08 02:22:07;;;;;;;9.17;8.13;;;14.90;91.80;;;14.62;87.10;98265.03;5019202;28;20462;-83
2023/09/08 02:24:34;;;;;;;9.23;8.33;;;14.80;92.20;;;14.55;86.98;98262.44;5016859;28;20463;-83
2023/09/08 02:27:01;;;;;;;8.93;7.40;;;14.70;92.40;;;14.43;87.77;98261.63;5017968;28;20451;-83
2023/09/08 02:29:28;;;;;;;11.30;8.00;;;14.60;92.60;;;14.37;88.11;98265.25;5017596;28;20464;-83
2023/09/08 02:31:56;;;;;;;9.57;8.30;;;14.60;93.10;;;14.26;89.56;98267.75;5030731;28;20531;-82
2023/09/08 02:34:24;;;;;;;8.67;7.80;;;14.50;93.40;;;14.30;89.26;98270.81;5019599;28;22460;-81
2023/09/08 02:36:51;;;;;;;8.90;8.20;;;14.40;94.00;;;14.25;89.20;98270.69;5028109;28;21033;-81
2023/09/08 02:39:19;;;;;;;7.90;7.10;;;14.50;93.80;;;14.29;89.42;98271.88;5017476;28;20456;-81
2023/09/08 02:41:46;;;;;;;7.40;6.70;;;14.40;94.00;;;14.16;89.97;98273.72;5028352;28;20465;-81
2023/09/08 02:44:14;;;;;;;9.03;7.27;;;14.30;94.20;;;14.10;90.54;98263.81;5018473;28;20461;-83
2023/09/08 02:46:41;;;;;;;10.73;8.23;;;14.30;94.60;;;14.12;90.78;98256.25;5032891;28;20465;-82
2023/09/08 02:49:08;;;;;;;8.50;7.60;;;14.20;94.90;;;14.09;90.60;98262.16;5021629;28;20464;-82
2023/09/08 02:51:37;;;;;;;8.50;7.80;;;14.20;94.90;;;14.00;90.92;98268.97;5011883;28;20648;-82
2023/09/08 02:54:05;;;;;;;9.17;8.27;;;14.20;94.80;;;13.88;91.93;98261.63;5033264;28;20464;-83
2023/09/08 02:56:32;;;;;;;9.80;8.23;;;14.10;95.10;;;13.92;92.18;98272.03;5023174;28;20483;-84
2023/09/08 02:58:59;;;;;;;11.80;7.93;;;14.00;95.70;;;13.80;93.07;98270.09;5033055;28;20448;-82
2023/09/08 03:01:26;;;;;;;10.33;7.63;;;14.00;96.00;;;13.78;93.29;98266.78;5023389;28;20549;-82
2023/09/08 03:03:54;;;;;;;8.70;7.80;;;13.90;96.50;;;13.78;93.10;98269.50;5021140;28;20457;-83
2023/09/08 03:06:21;;;;;;;9.83;8.97;;;13.90;96.60;;;13.77;93.24;98269.72;5029529;28;20478;-82
2023/09/08 03:08:50;;;;;;;9.60;8.23;;;13.90;96.70;;;13.58;93.67;98254.31;5031491;28;20509;-82
2023/09/08 03:11:17;;;;;;;8.90;8.00;;;13.80;96.90;;;13.79;93.66;98276.56;5004778;28;20471;-82
2023/09/08 03:13:44;;;;;;;8.50;7.70;;;13.90;97.10;;;14.00;92.11;98260.81;5022301;28;20440;-83
2023/09/08 03:16:12;;;;;;;9.50;8.60;;;14.10;96.50;;;14.08;91.44;98260.50;5024707;28;20471;-82
2023/09/08 03:18:40;;;;;;;8.73;7.93;;;14.20;95.60;;;14.05;91.04;98260.97;5028705;28;20851;-83
2023/09/08 03:21:10;;;;;;;8.87;8.07;;;14.20;94.70;;;14.11;91.26;98265.47;5022347;28;20471;-82
2023/09/08 03:23:38;;;;;;;9.03;8.13;;;14.20;95.30;;;14.00;91.18;98263.53;5036314;28;20570;-82
2023/09/08 03:26:07;;;;;;;9.23;7.80;;;14.20;94.80;;;13.96;92.18;98265.06;5025505;28;20452;-82
2023/09/08 03:28:36;;;;;;;8.77;8.00;;;14.10;95.50;;;14.05;91.32;98252.81;5041729;28;20455;-82
2023/09/08 03:31:04;;;;;;;9.30;8.30;;;14.30;95.20;;;14.23;90.69;98251.06;5016170;28;20467;-82
2023/09/08 03:33:31;;;;;;;8.87;8.00;;;14.40;94.60;;;14.07;91.02;98253.41;5021201;28;20758;-82
2023/09/08 03:35:58;;;;;;;8.67;7.83;;;14.30;94.10;;;14.02;91.38;98250.53;5020865;28;20856;-83
2023/09/08 03:38:26;;;;;;;8.80;7.90;;;14.30;94.70;;;14.05;90.94;98255.53;5017253;28;20503;-82
2023/09/08 03:40:53;;;;;;;10.30;8.40;;;14.30;94.80;;;13.97;91.14;98256.69;5021318;28;20528;-81
2023/09/08 03:43:21;;;;;;;8.30;7.30;;;14.20;94.20;;;13.87;91.67;98259.13;5023148;28;20482;-81
2023/09/08 03:45:49;;;;;;;8.43;7.67;;;14.20;94.50;;;13.73;92.20;98253.06;5024547;28;20516;-81
2023/09/08 03:48:16;;;;;;;10.90;8.40;;;14.00;94.90;;;13.72;93.13;98249.50;5025175;28;20458;-82
2023/09/08 03:50:45;;;;;;;9.80;8.00;;;13.90;95.90;;;13.78;92.51;98242.34;5034666;28;21106;-82
2023/09/08 03:53:12;;;;;;;10.93;9.17;;;14.00;95.50;;;13.66;93.10;98236.03;5020668;28;20557;-81
2023/09/08 03:55:39;;;;;;;10.17;8.70;;;14.00;95.40;;;13.67;93.13;98249.38;5015231;28;20582;-82
2023/09/08 03:58:07;;;;;;;11.77;8.20;;;14.00;95.40;;;13.77;93.27;98254.25;5038827;28;20550;-81
2023/09/08 04:00:35;;;;;;;9.07;8.20;;;14.00;95.50;;;13.71;93.17;98247.00;5028830;28;20539;-81
2023/09/08 04:03:03;;;;;;;10.07;8.97;;;14.00;95.30;;;13.77;93.23;98237.97;5018756;28;20457;-82
2023/09/08 04:05:31;;;;;;;9.40;8.33;;;14.00;95.50;;;13.75;93.38;98248.22;5026901;28;20465;-81
2023/09/08 04:07:58;;;;;;;8.80;8.00;;;14.00;96.10;;;13.73;93.36;98258.50;5043488;28;20431;-80
2023/09/08 04:10:25;;;;;;;8.57;7.87;;;13.90;96.10;;;13.72;93.89;98251.38;5020428;28;20461;-81
2023/09/08 04:12:52;;;;;;;9.50;8.60;;;13.90;96.40;;;13.53;94.07;98218.03;5026661;28;20458;-82
2023/09/08 04:15:20;;;;;;;11.57;8.60;;;13.90;96.80;;;13.75;93.83;98256.38;5015189;28;20467;-82
2023/09/08 04:17:48;;;;;;;8.03;7.33;;;13.90;96.90;;;13.85;93.72;98256.63;5017834;28;20540;-82
2023/09/08 04:20:16;;;;;;;8.97;8.17;;;13.90;97.70;;;13.92;92.16;98266.59;5022834;28;20458;-81
2023/09/08 04:22:43;;;;;;;9.63;8.63;;;14.00;96.60;;;14.19;91.59;98255.31;5024347;28;20453;-81
2023/09/08 04:25:11;;;;;;;8.57;7.77;;;14.20;96.00;;;14.17;89.88;98253.66;5024640;28;20501;-81
2023/09/08 04:27:38;;;;;;;10.67;8.77;;;14.40;94.60;;;14.10;90.03;98261.09;5023578;28;20458;-82
2023/09/08 04:30:06;;;;;;;9.23;8.33;;;14.30;93.90;;;14.02;90.38;98256.81;5024833;28;21082;-82
2023/09/08 04:32:34;;;;;;;9.40;8.50;;;14.30;93.90;;;13.87;90.18;98249.06;5015303;28;20464;-82
2023/09/08 04:35:02;;;;;;;8.77;7.87;;;14.20;93.80;;;13.80;90.64;98252.94;5025026;28;20803;-81
2023/09/08 04:37:30;;;;;;;9.30;8.40;;;14.20;93.70;;;13.71;91.41;98260.59;5027267;28;20485;-83
2023/09/08 04:39:57;;;;;;;10.50;9.43;;;14.10;94.10;;;13.53;92.58;98267.72;5029195;28;20447;-82
2023/09/08 04:42:25;;;;;;;10.83;9.27;;;14.00;94.20;;;13.60;92.57;98259.50;5024746;28;20525;-82
2023/09/08 04:44:52;;;;;;;11.50;9.37;;;14.00;94.70;;;13.57;92.62;98259.94;5022904;28;20466;-82
2023/09/08 04:47:19;;;;;;;10.17;9.17;;;13.90;94.70;;;13.48;93.04;98266.75;5046266;28;20458;-83
2023/09/08 04:49:47;;;;;;;9.83;8.83;;;13.90;94.80;;;13.43;93.26;98253.84;5050276;28;20454;-79
2023/09/08 04:52:15;;;;;;;10.73;9.77;;;13.90;95.10;;;13.66;92.89;98263.19;5030839;28;20517;-79
2023/09/08 04:54:42;;;;;;;10.80;9.70;;;13.90;95.70;;;13.57;93.45;98255.38;5022333;28;20515;-79
2023/09/08 04:57:09;;;;;;;10.93;8.77;;;13.90;95.30;;;13.69;92.88;98268.13;5021109;28;20526;-78
2023/09/08 04:59:38;;;;;;;9.40;8.50;;;13.90;95.90;;;13.82;91.58;98265.25;5023849;28;20462;-79
2023/09/08 05:02:06;;;;;;;10.73;9.60;;;14.00;95.40;;;14.26;90.22;98266.91;5022998;28;20462;-79
2023/09/08 05:04:33;;;;;;;8.93;8.13;;;14.50;94.30;;;14.57;86.98;98267.66;5020712;28;20468;-79
2023/09/08 05:07:00;;;;;;;9.40;8.50;;;15.00;92.00;;;14.73;85.25;98266.97;5023046;28;20453;-78
2023/09/08 05:09:29;;;;;;;9.20;8.33;;;15.30;90.80;;;15.13;83.47;98275.47;5026701;28;20466;-86
2023/09/08 05:11:56;;;;;;;10.97;8.13;;;15.70;90.30;;;15.72;80.47;98272.59;5021300;28;20475;-87
2023/09/08 05:14:24;;;;;;;10.37;8.40;;;16.30;89.30;;;15.61;79.21;98264.47;5041945;28;20453;-84
2023/09/08 05:16:55;;;;;;;9.40;8.40;;;16.50;87.30;;;15.99;77.39;98263.84;5021946;28;20471;-85
2023/09/08 05:19:23;;;;;;;8.90;7.50;;;16.70;86.70;;;16.49;75.19;98255.16;5028624;28;20456;-88
2023/09/08 05:21:52;;;;;;;12.17;7.30;;;17.30;85.50;;;17.00;74.66;98252.38;5029499;28;20471;-90
2023/09/08 05:24:20;;;;;;;8.73;7.77;;;17.60;85.80;;;16.52;72.26;98208.28;5028853;28;20457;-86
2023/09/08 05:26:49;;;;;;;8.60;7.70;;;17.90;83.80;;;15.64;77.50;98236.75;5022083;28;20456;-85
2023/09/08 05:29:16;;;;;;;9.00;8.03;;;17.10;84.10;;;15.62;78.32;98271.56;5028667;28;20465;-85
2023/09/08 05:31:45;;;;;;;8.40;7.60;;;16.50;85.40;;;15.44;80.00;98276.94;5023787;28;20835;-86
2023/09/08 05:34:12;;;;;;;9.80;8.40;;;16.20;86.40;;;15.27;79.65;98282.31;5021297;28;21446;-81
2023/09/08 05:36:40;;;;;;;9.17;8.30;;;15.90;86.80;;;15.16;80.67;98283.16;5018112;28;20491;-76
2023/09/08 05:39:08;;;;;;;9.50;8.13;;;15.60;87.30;;;14.81;82.15;98286.75;5019776;28;20463;-85
2023/09/08 05:41:35;;;;;;;9.20;8.30;;;15.40;87.90;;;14.66;83.34;98288.00;5021450;28;20512;-77
2023/09/08 05:44:05;;;;;;;8.67;7.87;;;15.20;88.60;;;14.58;84.07;98291.91;5025167;28;20478;-77
2023/09/08 05:46:32;;;;;;;10.13;7.47;;;15.10;89.30;;;14.49;84.19;98282.41;5016663;28;20461;-77
2023/09/08 05:48:59;;;;;;;9.33;8.53;;;15.00;89.80;;;14.59;84.17;98288.13;5036902;28;20460;-78
2023/09/08 05:51:27;;;;;;;8.70;7.90;;;15.00;90.00;;;14.57;84.50;98294.84;5014831;28;21124;-78
2023/09/08 05:53:54;;;;;;;10.47;8.97;;;15.00;90.00;;;14.62;84.05;98285.97;5016857;28;20460;-77
2023/09/08 05:56:21;;;;;;;9.90;8.03;;;15.00;90.00;;;14.73;83.32;98296.88;5021284;28;20463;-78
2023/09/08 05:58:48;;;;;;;9.20;8.30;;;15.10;90.00;;;14.82;83.04;98302.81;5018042;28;20485;-78
2023/09/08 06:01:17;;;;;;;12.70;8.50;;;15.20;90.00;;;14.80;83.74;98293.25;5016230;28;20451;-77
2023/09/08 06:03:45;;;;;;;9.80;8.90;;;15.20;90.10;;;14.83;83.50;98292.78;5021126;28;20477;-78
2023/09/08 06:06:12;;;;;;;11.07;8.63;;;15.20;90.00;;;14.94;82.54;98294.66;5022710;28;21070;-79
2023/09/08 06:08:39;;;;;;;8.97;8.07;;;15.30;89.80;;;14.89;83.09;98288.28;5019958;28;20479;-78
2023/09/08 06:11:06;;;;;;;8.97;8.13;;;15.30;89.70;;;15.11;81.81;98293.94;5026126;28;20459;-80
2023/09/08 06:13:34;;;;;;;8.77;7.97;;;15.40;89.60;;;15.19;81.47;98296.28;5029009;28;20523;-81
2023/09/08 06:16:01;;;;;;;9.17;8.03;;;15.60;89.30;;;15.22;81.19;98293.06;5028759;28;20441;-78
2023/09/08 06:18:31;;;;;;;11.83;7.97;;;15.60;89.10;;;15.30;81.19;98294.59;5027641;28;20502;-78
2023/09/08 06:20:58;;;;;;;9.20;8.40;;;15.70;89.10;;;15.33;81.07;98296.03;5028045;28;20476;-78
2023/09/08 06:23:25;;;;;;;9.17;7.53;;;15.70;88.90;;;15.43;80.10;98285.34;5036727;28;20463;-78
2023/09/08 06:25:58;;;;;;;8.43;7.63;;;15.80;88.70;;;15.56;79.90;98295.97;5031119;28;20463;-81
2023/09/08 06:28:25;;;;;;;8.47;7.57;;;15.90;88.60;;;15.72;79.14;98297.09;5040164;28;20501;-77
2023/09/08 06:30:53;;;;;;;8.50;7.60;;;16.00;88.50;;;15.92;78.10;98293.16;5043406;28;20482;-78
2023/09/08 06:33:21;;;;;;;8.07;7.27;;;16.10;88.00;;;16.05;77.44;98288.47;5040608;28;20453;-77
2023/09/08 06:35:50;;;;;;;9.40;8.50;;;16.30;87.80;;;15.96;77.41;98291.59;5040860;28;20456;-79
2023/09/08 06:38:18;;;;;;;11.50;7.80;;;16.30;87.40;;;16.06;77.16;98292.84;5030581;28;20571;-77
2023/09/08 06:40:45;;;;;;;8.10;7.23;;;16.40;87.30;;;16.03;77.33;98296.06;5033949;28;20471;-79
2023/09/08 06:43:12;;;;;;;11.53;7.37;;;16.40;87.10;;;16.03;77.43;98293.34;5043118;28;20460;-78
2023/09/08 06:45:40;;;;;;;7.73;7.03;;;16.50;87.20;;;16.16;76.54;98287.59;5007945;28;20464;-79
2023/09/08 06:48:07;;;;;;;8.50;7.10;;;16.50;86.80;;;16.33;75.99;98278.59;5024063;28;20480;-80
2023/09/08 06:50:35;;;;;;;7.40;6.70;;;16.60;86.60;;;16.50;74.90;98290.34;5037982;28;20531;-78
2023/09/08 06:53:04;;;;;;;11.80;7.10;;;16.80;86.10;;;16.62;74.43;98286.69;5024629;28;20496;-79
2023/09/08 06:55:31;;;;;;;8.60;7.17;;;16.90;85.90;;;16.85;74.26;98285.69;5019859;28;20466;-77
2023/09/08 06:57:59;;;;;;;7.77;6.83;;;17.10;86.20;;;16.77;73.32;98277.94;5016229;28;20557;-79
2023/09/08 07:00:26;;;;;;;8.40;6.87;;;17.20;85.60;;;16.79;74.00;98282.06;5023549;28;20763;-78
2023/09/08 07:02:53;;;;;;;9.93;8.00;;;17.20;85.60;;;16.86;73.59;98290.06;5016653;28;20569;-78
2023/09/08 07:05:20;;;;;;;7.30;6.60;;;17.20;85.40;;;16.95;73.45;98293.19;5017067;28;20472;-78
2023/09/08 07:07:47;;;;;;;8.00;7.30;;;17.30;85.60;;;16.99;73.13;98289.75;5016010;28;21775;-79
2023/09/08 07:10:16;;;;;;;8.17;7.37;;;17.40;85.20;;;17.13;72.37;98300.31;5017970;28;20453;-80
2023/09/08 07:12:43;;;;;;;6.83;6.17;;;17.50;84.90;;;17.16;72.14;98293.53;5015486;28;20476;-79
2023/09/08 07:15:11;;;;;;;8.50;7.70;;;17.50;84.70;;;17.26;71.92;98299.97;5019419;28;20551;-78
2023/09/08 07:17:38;;;;;;;7.77;7.07;;;17.60;84.50;;;17.20;71.87;98264.66;5015537;28;20468;-79
2023/09/08 07:20:06;;;;;;;7.73;6.93;;;17.70;84.70;;;17.47;71.24;98294.75;5020432;28;20481;-79
2023/09/08 07:22:34;;;;;;;8.17;7.30;;;17.80;84.40;;;17.52;71.07;98303.03;5015014;28;20468;-80
2023/09/08 07:25:01;;;;;;;7.43;6.73;;;17.90;84.10;;;17.73;70.39;98296.97;5021370;28;20553;-79
2023/09/08 07:27:29;;;;;;;8.10;6.70;;;18.00;84.00;;;17.87;70.03;98281.00;5009489;28;20462;-79
2023/09/08 07:29:57;;;;;;;7.17;6.47;;;18.10;84.00;;;18.15;68.99;98287.34;5016705;28;20527;-79
2023/09/08 07:32:24;;;;;;;7.93;7.13;;;18.30;83.60;;;18.28;68.59;98286.94;5022290;28;20532;-88
2023/09/08 07:34:54;;;;;;;7.00;6.30;;;18.50;83.50;;;18.36;67.95;98289.16;5022359;28;20498;-79
2023/09/08 07:37:22;;;;;;;7.07;6.37;;;18.60;82.90;;;18.53;67.50;98282.75;5017166;28;20574;-78
2023/09/08 07:39:49;;;;;;;7.43;6.73;;;18.70;82.80;;;18.72;67.51;98293.28;5019101;28;20537;-79
2023/09/08 07:42:17;;;;;;;7.37;6.70;;;18.80;83.10;;;18.82;66.63;98290.63;5019273;28;20948;-78
2023/09/08 07:44:46;;;;;;;8.13;7.43;;;19.00;82.50;;;18.91;66.00;98289.06;5018566;28;20461;-79
2023/09/08 07:47:13;;;;;;;7.70;7.00;;;19.10;82.10;;;18.96;65.47;98280.88;5022614;28;20464;-80
2023/09/08 07:49:47;;;;;;;7.57;6.10;;;19.20;81.80;;;18.94;65.58;98288.53;5024443;28;20536;-80
2023/09/08 07:52:14;;;;;;;7.27;5.50;;;19.30;81.50;;;18.97;65.58;98282.50;5022434;28;20477;-79
2023/09/08 07:54:41;;;;;;;6.80;6.10;;;19.30;81.40;;;19.01;64.68;98288.31;5027404;28;20458;-79
2023/09/08 07:57:08;;;;;;;6.73;5.80;;;19.30;81.10;;;19.20;64.10;98296.09;5016623;28;20862;-79
2023/09/08 07:59:36;;;;;;;6.90;6.00;;;19.40;80.60;;;19.35;63.86;98298.09;5020069;28;20551;-79
2023/09/08 08:02:05;;;;;;;8.30;5.90;;;19.50;80.60;;;19.37;64.02;98284.97;5021983;28;20451;-79
2023/09/08 08:04:32;;;;;;;9.57;6.70;;;19.60;80.50;;;19.32;63.55;98287.66;5016497;28;20555;-79
2023/09/08 08:06:59;;;;;;;6.33;5.83;;;19.70;80.00;;;19.55;63.00;98297.34;5013808;28;21163;-80
2023/09/08 08:09:26;;;;;;;6.73;6.13;;;19.70;79.80;;;19.70;63.01;98287.53;5013243;28;20524;-80
2023/09/08 08:11:53;;;;;;;6.37;5.87;;;19.80;79.90;;;19.79;62.93;98289.50;5019000;28;20513;-79
2023/09/08 08:14:21;;;;;;;7.53;6.83;;;20.00;79.80;;;19.97;62.11;98281.91;5023232;28;20981;-79
2023/09/08 08:16:48;;;;;;;6.87;6.27;;;20.10;79.60;;;20.17;61.98;98288.50;5020689;28;20443;-79
2023/09/08 08:19:17;;;;;;;7.13;5.80;;;20.20;79.40;;;20.24;61.37;98283.56;5042603;28;21029;-78
2023/09/08 08:21:44;;;;;;;9.73;6.70;;;20.40;79.10;;;20.28;61.59;98284.69;5042910;28;20454;-79
2023/09/08 08:24:12;;;;;;;10.33;6.00;;;20.50;79.10;;;20.59;60.50;98286.63;5037118;28;20564;-79
2023/09/08 08:26:39;;;;;;;8.83;6.73;;;20.60;78.70;;;20.78;59.71;98281.41;5023766;28;20495;-78
2023/09/08 08:29:06;;;;;;;6.83;6.20;;;20.90;78.10;;;20.79;59.44;98285.78;5032690;28;20968;-79
2023/09/08 08:31:34;;;;;;;7.73;5.80;;;21.00;77.90;;;20.85;58.29;98292.97;5023929;28;20849;-78
2023/09/08 08:34:01;;;;;;;6.30;5.70;;;21.00;76.70;;;20.72;59.16;98255.88;5028868;28;20549;-80
2023/09/08 08:36:29;;;;;;;6.53;5.93;;;21.10;77.10;;;21.16;58.35;98290.16;5036008;28;20450;-78
2023/09/08 08:38:56;;;;;;;6.27;5.53;;;21.20;76.70;;;21.14;58.51;98286.84;5043873;28;20501;-79
2023/09/08 08:41:24;;;;;;;8.50;6.70;;;21.20;76.80;;;21.15;58.27;98280.25;5046569;28;20994;-79
2023/09/08 08:43:52;;;;;;;8.50;6.17;;;21.30;76.70;;;21.39;58.12;98282.38;5026043;28;20461;-79
2023/09/08 08:46:21;;;;;;;6.03;5.40;;;21.40;76.60;;;21.40;57.97;98281.28;5021943;28;20457;-79
2023/09/08 08:48:51;;;;;;;7.40;5.97;;;21.50;76.60;;;21.21;58.73;98281.91;5024182;28;20535;-78
2023/09/08 08:51:20;;;;;;;6.83;6.23;;;21.50;76.30;;;21.33;57.87;98278.81;5025600;28;20448;-79
2023/09/08 08:53:48;;;;;;;6.97;6.37;;;21.40;76.00;;;21.56;57.30;98282.06;5024841;28;20939;-79
2023/09/08 08:56:17;;;;;;;6.47;5.93;;;21.60;75.90;;;21.62;57.48;98285.59;5024967;28;20449;-79
2023/09/08 08:58:45;;;;;;;7.10;5.93;;;21.70;76.00;;;21.66;57.41;98278.47;5028532;28;20487;-77
2023/09/08 09:01:13;;;;;;;5.90;5.43;;;21.70;75.60;;;21.69;56.46;98280.63;5021628;28;20451;-78
2023/09/08 09:03:41;;;;;;;7.13;5.97;;;21.90;74.90;;;21.81;55.96;98271.25;5021672;28;20477;-79
2023/09/08 09:06:08;;;;;;;6.43;5.83;;;21.90;74.50;;;21.92;55.99;98270.88;5020628;28;20453;-81
2023/09/08 09:08:37;;;;;;;6.27;5.67;;;22.00;74.70;;;22.10;56.14;98265.00;5021607;28;20463;-81
2023/09/08 09:11:05;;;;;;;6.30;5.70;;;22.20;74.90;;;22.21;55.57;98264.66;5040727;28;20451;-80
2023/09/08 09:13:33;;;;;;;6.40;5.73;;;22.30;74.40;;;22.39;54.54;98265.06;5013824;28;20465;-79
2023/09/08 09:16:03;;;;;;;6.23;5.73;;;22.40;73.50;;;22.37;52.21;98259.03;5020614;28;20464;-79
2023/09/08 09:18:31;;;;;;;6.73;5.43;;;22.50;71.20;;;22.57;51.65;98255.31;5015632;28;20811;-79
2023/09/08 09:21:02;;;;;;;6.63;5.50;;;22.60;70.60;;;22.73;50.41;98252.44;5031058;28;20462;-80
2023/09/08 09:23:30;;;;;;;7.33;5.10;;;22.80;69.60;;;22.79;51.39;98251.25;5028435;28;20450;-79
2023/09/08 09:26:54;;;;;;;6.73;5.60;;;22.90;69.80;;;22.69;52.50;98262.38;5025212;28;20459;-83
2023/09/08 09:29:44;;;;;;;5.80;5.30;;;22.90;70.30;;;22.81;50.49;98256.47;5025098;28;20448;-83
2023/09/08 09:32:24;;;;;;;5.93;5.43;;;22.90;68.70;;;23.14;49.66;98248.41;5025838;28;20459;-81
2023/09/08 09:41:26;;;;;;;7.87;5.03;;;23.40;66.40;;;23.47;47.49;98245.84;5047614;28;20446;-79
2023/09/08 09:44:07;;;;;;;6.73;5.23;;;23.50;65.80;;;23.42;47.81;98240.41;5027116;28;20457;-80
2023/09/08 09:47:11;;;;;;;5.27;4.77;;;23.60;65.50;;;23.57;47.38;98233.84;5039514;28;20450;-81
2023/09/08 09:49:53;;;;;;;5.57;5.07;;;23.70;65.30;;;23.45;47.27;98234.28;5021997;28;20462;-81
2023/09/08 09:52:25;;;;;;;7.37;5.07;;;23.70;64.50;;;23.70;47.99;98241.41;5024892;28;20519;-81
2023/09/08 09:54:56;;;;;;;6.47;5.63;;;23.70;65.80;;;23.68;48.13;98237.31;5027019;28;20447;-82
2023/09/08 09:57:24;;;;;;;5.97;5.47;;;23.80;65.50;;;23.75;47.23;98229.50;5026069;28;20451;-81
2023/09/08 10:00:06;;;;;;;7.17;5.73;;;23.80;65.10;;;23.77;48.03;98228.09;5027865;28;20472;-81
2023/09/08 10:02:54;;;;;;;5.43;4.93;;;23.90;65.30;;;23.98;47.02;98229.72;5023221;28;20561;-81
2023/09/08 10:05:33;;;;;;;7.00;5.43;;;24.00;64.80;;;24.07;46.29;98229.91;5021792;28;20530;-80
2023/09/08 10:08:23;;;;;;;5.47;4.97;;;24.10;63.90;;;24.15;45.67;98234.72;5037427;28;20450;-81
2023/09/08 10:11:01;;;;;;;6.00;5.07;;;24.20;63.30;;;24.16;45.23;98234.44;5030890;28;20530;-80
2023/09/08 10:16:52;;;;;;;5.10;4.70;;;24.30;63.10;;;24.28;45.56;98236.72;5023915;28;20466;-79
2023/09/08 10:19:26;;;;;;;5.80;5.00;;;24.40;62.70;;;24.44;44.20;98225.41;5027546;28;20489;-80
2023/09/08 10:22:07;;;;;;;5.60;4.97;;;24.40;62.10;;;24.63;43.91;98225.38;5024825;28;20464;-80
2023/09/08 10:28:24;;;;;;;;;;;;;;;;;;;;;
2023/09/08 10:30:55;;;;;;;5.80;4.30;;;24.60;60.10;;;24.57;42.73;98216.34;4953374;28;20473;-82
2023/09/08 10:34:17;;;;;;;5.53;5.00;;;24.60;59.90;;;24.78;42.98;98220.72;4962975;28;20662;-81
2023/09/08 10:36:44;;;;;;;5.33;4.93;;;24.80;59.80;;;24.73;43.37;98224.38;4944496;28;20450;-82
2023/09/08 10:39:51;;;;;;;6.17;5.23;;;24.90;60.30;;;24.74;43.21;98212.19;5024351;28;20968;-83
2023/09/08 10:42:34;;;;;;;5.07;4.70;;;24.80;59.80;;;24.85;43.46;98205.41;4978917;28;20809;-82